Time;durP1;ratioP1;P1;durP2;ratioP2;P2;SDS_P1;SDS_P2;PMS_P1;PMS_P2;Temp;Humidity;BMP_temperature;BMP_pressure;BME280_temperature;BME280_humidity;BME280_pressure;Samples;Min_cycle;Max_cycle;Signal;HPM_P1;HPM_P2
2023/01/25 00:01:54;;;;;;;22.40;12.43;;;0.60;99.90;;;;;;5072989;28;20052;-77
2023/01/25 00:04:21;;;;;;;20.98;12.70;;;1.20;99.90;;;;;;5080697;28;20124;-77
2023/01/25 00:06:47;;;;;;;21.38;13.50;;;0.60;99.90;;;;;;5072519;28;20559;-77
2023/01/25 00:09:14;;;;;;;21.17;12.55;;;0.60;99.90;;;;;;5075970;28;20391;-77
2023/01/25 00:11:41;;;;;;;22.08;13.13;;;0.60;99.90;;;;;;5073104;28;20083;-77
2023/01/25 00:14:08;;;;;;;21.27;13.02;;;1.40;99.90;;;;;;5084767;28;20054;-78
2023/01/25 00:16:35;;;;;;;20.85;13.15;;;0.70;99.90;;;;;;5075542;28;20082;-77
2023/01/25 00:19:00;;;;;;;21.05;12.95;;;1.00;99.90;;;;;;5074187;28;20501;-77
2023/01/25 00:21:26;;;;;;;21.85;13.55;;;0.70;99.90;;;;;;5077530;28;20036;-77
2023/01/25 00:23:52;;;;;;;24.25;14.50;;;0.80;99.90;;;;;;5076175;28;20084;-77
2023/01/25 00:26:18;;;;;;;21.15;13.55;;;1.10;99.90;;;;;;5082200;28;20044;-78
2023/01/25 00:28:52;;;;;;;23.27;13.45;;;0.80;99.90;;;;;;5074377;28;20051;-77
2023/01/25 00:31:33;;;;;;;23.55;14.32;;;0.80;99.90;;;;;;5067383;28;20084;-77
2023/01/25 00:34:23;;;;;;;22.73;13.93;;;0.80;99.90;;;;;;5069953;28;20055;-77
2023/01/25 00:37:00;;;;;;;21.77;13.48;;;0.70;99.90;;;;;;5071389;28;20067;-77
2023/01/25 00:39:26;;;;;;;22.88;13.82;;;0.70;99.90;;;;;;5083805;28;20575;-77
2023/01/25 00:41:52;;;;;;;21.73;13.90;;;0.60;99.90;;;;;;5077729;28;20040;-77
2023/01/25 00:44:18;;;;;;;23.02;13.32;;;0.60;99.90;;;;;;5086578;28;20040;-78
2023/01/25 00:46:43;;;;;;;21.67;13.88;;;0.90;99.90;;;;;;5073709;28;20044;-77
2023/01/25 00:49:23;;;;;;;21.83;13.90;;;0.40;99.90;;;;;;5082933;28;20110;-77
2023/01/25 00:51:50;;;;;;;19.85;13.10;;;0.40;99.90;;;;;;5079621;28;20032;-78
2023/01/25 00:54:17;;;;;;;20.35;13.23;;;0.60;99.90;;;;;;5084170;28;20059;-78
2023/01/25 00:56:43;;;;;;;20.60;13.23;;;0.40;99.90;;;;;;5081493;28;20055;-77
2023/01/25 00:59:10;;;;;;;23.33;14.30;;;0.80;99.90;;;;;;5068419;28;20048;-77
2023/01/25 01:01:36;;;;;;;22.77;13.10;;;0.50;99.90;;;;;;5078021;28;20396;-77
2023/01/25 01:04:01;;;;;;;24.63;14.90;;;0.40;99.90;;;;;;5075282;28;20109;-77
2023/01/25 01:06:27;;;;;;;20.45;12.45;;;0.50;99.90;;;;;;5072111;28;20134;-77
2023/01/25 01:08:53;;;;;;;21.40;12.90;;;0.80;99.90;;;;;;5081763;28;20488;-77
2023/01/25 01:11:18;;;;;;;25.25;15.02;;;0.50;99.90;;;;;;5078642;28;20040;-77
2023/01/25 01:13:44;;;;;;;22.45;12.88;;;1.10;99.90;;;;;;5080799;28;20056;-77
2023/01/25 01:16:11;;;;;;;22.67;13.25;;;0.40;99.90;;;;;;5066904;28;20048;-77
2023/01/25 01:18:41;;;;;;;22.60;12.98;;;0.40;99.90;;;;;;5062611;28;20049;-77
2023/01/25 01:21:07;;;;;;;22.48;13.93;;;-0.10;99.90;;;;;;5075721;28;20044;-77
2023/01/25 01:23:34;;;;;;;23.50;13.38;;;0.40;99.90;;;;;;5073824;28;20177;-78
2023/01/25 01:26:05;;;;;;;23.13;13.73;;;0.40;99.90;;;;;;5073003;28;20040;-77
2023/01/25 01:28:32;;;;;;;24.60;14.55;;;0.70;99.90;;;;;;5081769;28;20097;-78
2023/01/25 01:31:06;;;;;;;22.58;13.48;;;0.50;99.90;;;;;;5071915;28;20043;-77
2023/01/25 01:33:32;;;;;;;22.20;14.27;;;0.40;99.90;;;;;;5074449;28;20048;-78
2023/01/25 01:35:58;;;;;;;22.88;14.25;;;0.40;99.90;;;;;;5091148;28;20097;-77
2023/01/25 01:38:24;;;;;;;23.33;14.20;;;1.00;99.90;;;;;;5045231;28;20048;-78
2023/01/25 01:40:50;;;;;;;22.05;13.98;;;0.60;99.90;;;;;;5081968;28;20045;-77
2023/01/25 01:43:21;;;;;;;21.33;12.98;;;0.50;99.90;;;;;;5075697;28;20476;-77
2023/01/25 01:45:47;;;;;;;22.38;14.02;;;0.50;99.90;;;;;;5073568;28;20087;-77
2023/01/25 01:48:31;;;;;;;23.77;14.32;;;0.70;99.90;;;;;;5087770;28;20048;-78
2023/01/25 01:51:01;;;;;;;23.08;13.73;;;0.60;99.90;;;;;;5075910;28;20117;-77
2023/01/25 01:53:31;;;;;;;21.83;13.32;;;0.60;99.90;;;;;;5077200;28;20476;-78
2023/01/25 01:56:02;;;;;;;23.20;13.98;;;0.70;99.90;;;;;;5072876;28;20044;-77
2023/01/25 01:58:28;;;;;;;21.77;13.63;;;0.60;99.90;;;;;;5082145;28;20053;-77
2023/01/25 02:00:54;;;;;;;23.25;13.05;;;0.60;99.90;;;;;;5045957;28;20495;-77
2023/01/25 02:03:21;;;;;;;23.10;14.25;;;1.00;99.90;;;;;;5081602;28;20055;-77
2023/01/25 02:06:00;;;;;;;23.00;14.00;;;0.90;99.90;;;;;;5055421;28;20127;-77
2023/01/25 02:08:29;;;;;;;20.67;13.18;;;0.50;99.90;;;;;;5085879;28;20488;-77
2023/01/25 02:10:55;;;;;;;22.77;13.18;;;0.50;99.90;;;;;;5061406;28;20121;-77
2023/01/25 02:13:21;;;;;;;20.08;12.68;;;0.40;99.90;;;;;;5080017;28;20281;-77
2023/01/25 02:15:49;;;;;;;24.35;14.57;;;0.40;99.90;;;;;;5081354;28;20057;-77
2023/01/25 02:18:16;;;;;;;26.55;14.48;;;0.80;99.90;;;;;;5089972;28;20508;-77
2023/01/25 02:20:44;;;;;;;23.63;14.95;;;0.30;99.90;;;;;;5074057;28;20049;-77
2023/01/25 02:23:37;;;;;;;22.50;13.95;;;0.80;99.90;;;;;;5062583;28;20058;-77
2023/01/25 02:26:05;;;;;;;24.92;14.45;;;0.30;99.90;;;;;;5072192;28;20131;-77
2023/01/25 02:28:31;;;;;;;23.98;14.63;;;1.00;99.90;;;;;;5084013;28;20041;-77
2023/01/25 02:30:57;;;;;;;24.42;14.10;;;0.30;99.90;;;;;;5093439;28;20131;-77
2023/01/25 02:33:24;;;;;;;23.83;14.25;;;0.40;99.90;;;;;;5087145;28;20515;-77
2023/01/25 02:35:57;;;;;;;25.33;15.52;;;0.40;99.90;;;;;;5073332;28;20549;-77
2023/01/25 02:38:23;;;;;;;24.95;14.05;;;0.40;99.90;;;;;;5091623;28;20056;-78
2023/01/25 02:41:02;;;;;;;24.15;14.05;;;0.40;99.90;;;;;;5061337;28;20401;-77
2023/01/25 02:43:31;;;;;;;23.25;13.75;;;0.40;99.90;;;;;;5091040;28;20048;-78
2023/01/25 02:46:09;;;;;;;24.35;15.43;;;0.60;99.90;;;;;;5076132;28;20044;-77
2023/01/25 02:48:35;;;;;;;23.92;14.23;;;0.60;99.90;;;;;;5078251;28;20041;-78
2023/01/25 02:51:01;;;;;;;26.75;15.05;;;0.30;99.90;;;;;;5092978;28;20438;-77
2023/01/25 02:53:26;;;;;;;25.50;13.98;;;0.40;99.90;;;;;;5077150;28;20032;-79
2023/01/25 02:55:52;;;;;;;24.55;15.10;;;0.30;99.90;;;;;;5041221;28;20094;-79
2023/01/25 03:03:27;;;;;;;26.15;15.57;;;0.00;99.90;;;;;;5009632;28;19925;-75
2023/01/25 03:05:53;;;;;;;24.23;15.18;;;0.40;99.90;;;;;;4995779;28;20096;-79
2023/01/25 03:08:19;;;;;;;28.45;16.85;;;0.30;99.90;;;;;;5014266;28;20045;-78
2023/01/25 03:10:44;;;;;;;26.45;14.88;;;0.10;99.90;;;;;;5014956;28;20046;-78
2023/01/25 03:13:10;;;;;;;26.88;16.38;;;0.20;99.90;;;;;;5014507;28;20498;-77
2023/01/25 03:15:36;;;;;;;26.75;16.60;;;1.00;99.90;;;;;;4998512;28;20061;-77
2023/01/25 03:18:01;;;;;;;27.50;16.63;;;0.40;99.90;;;;;;4998205;28;20081;-77
2023/01/25 03:20:27;;;;;;;28.23;15.65;;;0.40;99.90;;;;;;5014608;28;20045;-77
2023/01/25 03:22:54;;;;;;;28.05;15.77;;;0.40;99.90;;;;;;4982662;28;20407;-77
2023/01/25 03:25:19;;;;;;;26.58;15.88;;;0.50;99.90;;;;;;5014615;28;20046;-77
2023/01/25 03:27:45;;;;;;;26.73;15.25;;;0.40;99.90;;;;;;4997993;28;20156;-77
2023/01/25 03:30:11;;;;;;;27.33;16.55;;;0.50;99.90;;;;;;4997783;28;20049;-77
2023/01/25 03:32:37;;;;;;;29.00;16.70;;;0.40;99.90;;;;;;5014209;28;20042;-77
2023/01/25 03:35:03;;;;;;;27.27;15.45;;;0.50;99.90;;;;;;4997946;28;20042;-77
2023/01/25 03:37:30;;;;;;;26.55;15.93;;;0.30;99.90;;;;;;5014352;28;20046;-77
2023/01/25 03:39:57;;;;;;;27.13;15.38;;;0.20;99.90;;;;;;5013930;28;20046;-77
2023/01/25 03:42:23;;;;;;;27.35;15.93;;;0.20;99.90;;;;;;5014059;28;20060;-77
2023/01/25 03:44:49;;;;;;;25.55;15.27;;;0.40;99.90;;;;;;4982295;28;20049;-78
2023/01/25 03:47:15;;;;;;;29.70;16.10;;;0.50;99.90;;;;;;4981769;28;20129;-77
2023/01/25 03:49:41;;;;;;;25.85;14.65;;;0.10;99.90;;;;;;4997424;28;20056;-76
2023/01/25 03:52:07;;;;;;;25.52;14.60;;;0.20;99.90;;;;;;4997886;28;20050;-77
2023/01/25 03:54:32;;;;;;;26.65;15.07;;;0.30;99.90;;;;;;5013835;28;20125;-77
2023/01/25 03:56:58;;;;;;;25.33;14.65;;;0.70;99.90;;;;;;4981337;28;20452;-77
2023/01/25 03:59:24;;;;;;;25.23;14.57;;;0.20;99.90;;;;;;5013428;28;20053;-77
2023/01/25 04:01:50;;;;;;;25.70;14.25;;;0.20;99.90;;;;;;5013246;28;20099;-77
2023/01/25 04:04:16;;;;;;;27.10;15.13;;;0.80;99.90;;;;;;4997426;28;20057;-77
2023/01/25 04:06:41;;;;;;;23.75;14.07;;;0.50;99.90;;;;;;5013576;28;20046;-77
2023/01/25 04:09:07;;;;;;;20.58;12.50;;;0.10;99.90;;;;;;5013927;28;20038;-77
2023/01/25 04:11:33;;;;;;;21.45;12.63;;;0.00;99.90;;;;;;5013584;28;20092;-77
2023/01/25 04:13:59;;;;;;;25.55;14.13;;;-0.10;99.90;;;;;;4997089;28;20081;-77
2023/01/25 04:16:26;;;;;;;24.27;13.43;;;-0.20;99.90;;;;;;5012940;28;20053;-77
2023/01/25 04:18:51;;;;;;;26.10;15.18;;;-0.20;99.90;;;;;;4996818;28;20125;-77
2023/01/25 04:21:17;;;;;;;23.45;13.65;;;-0.20;99.90;;;;;;4996134;28;20132;-77
2023/01/25 04:23:43;;;;;;;25.13;14.98;;;-0.30;99.90;;;;;;4980608;28;20053;-77
2023/01/25 04:26:14;;;;;;;25.67;14.45;;;-0.10;99.90;;;;;;5013014;28;20050;-77
2023/01/25 04:28:40;;;;;;;23.30;13.52;;;-0.20;99.90;;;;;;4997630;28;20053;-76
2023/01/25 04:31:05;;;;;;;28.75;15.90;;;-0.20;99.90;;;;;;5013087;28;20050;-77
2023/01/25 04:33:32;;;;;;;26.48;15.43;;;0.40;99.90;;;;;;4997354;28;20076;-76
2023/01/25 04:35:58;;;;;;;30.70;16.38;;;-0.20;99.90;;;;;;5012676;28;20042;-77
2023/01/25 04:38:24;;;;;;;27.30;15.10;;;-0.20;99.90;;;;;;4997189;28;20057;-78
2023/01/25 04:40:50;;;;;;;28.25;16.83;;;-0.30;99.90;;;;;;4996817;28;20439;-77
2023/01/25 04:43:18;;;;;;;25.48;15.05;;;-0.30;99.90;;;;;;4996487;28;20061;-76
2023/01/25 04:45:44;;;;;;;26.02;16.02;;;0.50;99.90;;;;;;5012845;28;20057;-76
2023/01/25 04:48:11;;;;;;;27.27;16.05;;;-0.10;99.90;;;;;;5013560;28;20377;-76
2023/01/25 04:50:38;;;;;;;29.40;16.30;;;-0.30;99.90;;;;;;4996538;28;20092;-76
2023/01/25 04:53:05;;;;;;;31.58;16.35;;;-0.30;99.90;;;;;;5013543;28;20061;-80
2023/01/25 04:55:32;;;;;;;28.35;15.73;;;-0.20;99.90;;;;;;5013127;28;20367;-80
2023/01/25 04:57:57;;;;;;;29.95;16.73;;;0.20;99.90;;;;;;5013530;28;20096;-79
2023/01/25 05:00:23;;;;;;;25.80;15.07;;;0.40;99.90;;;;;;4996739;28;20081;-79
2023/01/25 05:02:49;;;;;;;31.67;17.25;;;-0.20;99.90;;;;;;5012136;28;20058;-79
2023/01/25 05:05:15;;;;;;;30.45;16.83;;;0.40;99.90;;;;;;5012259;28;20136;-79
2023/01/25 05:07:40;;;;;;;29.88;16.52;;;-0.20;99.90;;;;;;5012552;28;20046;-79
2023/01/25 05:10:07;;;;;;;28.90;15.52;;;-0.20;99.90;;;;;;4998389;28;20057;-79
2023/01/25 05:12:33;;;;;;;32.83;17.27;;;-0.30;99.90;;;;;;5013317;28;20058;-77
2023/01/25 05:14:58;;;;;;;30.65;16.65;;;-0.30;99.90;;;;;;5013117;28;20501;-76
2023/01/25 05:17:24;;;;;;;28.73;15.85;;;-0.30;99.90;;;;;;4996581;28;20494;-77
2023/01/25 05:19:50;;;;;;;29.95;16.45;;;-0.30;99.90;;;;;;4996279;28;20393;-77
2023/01/25 05:22:19;;;;;;;26.20;15.65;;;0.40;99.90;;;;;;4979794;28;20042;-77
2023/01/25 05:24:45;;;;;;;26.45;15.63;;;0.60;99.90;;;;;;5013241;28;20184;-76
2023/01/25 05:27:14;;;;;;;28.15;15.85;;;-0.30;99.90;;;;;;5012591;28;20081;-77
2023/01/25 05:29:41;;;;;;;26.17;14.38;;;-0.30;99.90;;;;;;5011845;28;20054;-77
2023/01/25 05:32:21;;;;;;;29.35;16.17;;;-0.30;99.90;;;;;;4995989;28;20088;-77
2023/01/25 05:34:47;;;;;;;25.55;14.18;;;-0.30;99.90;;;;;;5016471;28;20073;-77
2023/01/25 05:37:16;;;;;;;26.23;14.57;;;0.40;99.90;;;;;;5016212;28;20045;-77
2023/01/25 05:39:41;;;;;;;27.73;14.20;;;-0.30;99.90;;;;;;5016509;28;20107;-78
2023/01/25 05:42:16;;;;;;;23.65;14.23;;;-0.30;99.90;;;;;;4999645;28;20521;-77
2023/01/25 05:44:42;;;;;;;25.73;14.02;;;-0.30;99.90;;;;;;5016204;28;20120;-77
2023/01/25 05:47:16;;;;;;;24.65;14.60;;;0.30;99.90;;;;;;4984482;28;20077;-77
2023/01/25 05:49:41;;;;;;;25.70;13.68;;;-0.30;99.90;;;;;;4999848;28;20102;-77
2023/01/25 05:52:12;;;;;;;23.13;12.77;;;-0.20;99.90;;;;;;5000027;28;20081;-77
2023/01/25 05:54:38;;;;;;;23.33;12.55;;;0.40;99.90;;;;;;5000571;28;20054;-77
2023/01/25 05:57:03;;;;;;;23.27;12.50;;;0.30;99.90;;;;;;5016351;28;20054;-77
2023/01/25 05:59:29;;;;;;;22.95;12.80;;;0.30;99.90;;;;;;4999671;28;20092;-77
2023/01/25 06:01:55;;;;;;;23.88;13.20;;;-0.50;99.90;;;;;;5015491;28;20053;-77
2023/01/25 06:04:21;;;;;;;26.23;14.10;;;-0.40;99.90;;;;;;5031579;28;20108;-77
2023/01/25 06:06:46;;;;;;;23.67;13.43;;;-0.40;99.90;;;;;;5032256;28;20060;-77
2023/01/25 06:09:13;;;;;;;23.17;13.68;;;-0.40;99.90;;;;;;4999250;28;20049;-78
2023/01/25 06:11:38;;;;;;;24.67;13.60;;;-0.40;99.90;;;;;;4999588;28;20038;-77
2023/01/25 06:14:04;;;;;;;23.30;13.93;;;-0.30;99.90;;;;;;5015875;28;20092;-77
2023/01/25 06:16:30;;;;;;;23.00;13.90;;;-0.40;99.90;;;;;;4999312;28;20046;-77
2023/01/25 06:18:55;;;;;;;24.92;13.55;;;-0.40;99.90;;;;;;5015696;28;20050;-78
2023/01/25 06:21:21;;;;;;;25.35;14.10;;;-0.40;99.90;;;;;;4983733;28;20077;-76
2023/01/25 06:23:47;;;;;;;22.42;12.50;;;-0.40;99.90;;;;;;5015272;28;20057;-77
2023/01/25 06:26:14;;;;;;;20.30;11.48;;;-0.40;99.90;;;;;;5015489;28;20099;-76
2023/01/25 06:28:40;;;;;;;23.20;12.60;;;-0.40;99.90;;;;;;4999494;28;20056;-76
2023/01/25 06:31:14;;;;;;;20.83;12.10;;;-0.40;99.90;;;;;;5015142;28;20049;-78
2023/01/25 06:33:41;;;;;;;23.25;12.68;;;-0.50;99.90;;;;;;4999540;28;20494;-76
2023/01/25 06:36:11;;;;;;;22.30;12.93;;;0.30;99.90;;;;;;5015361;28;20054;-77
2023/01/25 06:38:37;;;;;;;24.63;12.45;;;-0.50;99.90;;;;;;5016226;28;20081;-77
2023/01/25 06:41:05;;;;;;;23.02;12.57;;;-0.50;99.90;;;;;;5015114;28;20045;-77
2023/01/25 06:43:32;;;;;;;21.17;12.63;;;-0.50;99.90;;;;;;5014924;28;20085;-76
2023/01/25 06:46:06;;;;;;;24.83;12.98;;;-0.60;99.90;;;;;;5014370;28;20108;-76
2023/01/25 06:48:32;;;;;;;24.55;13.48;;;-0.60;99.90;;;;;;5015957;28;20112;-77
2023/01/25 06:51:07;;;;;;;26.13;14.45;;;-0.10;99.90;;;;;;5015262;28;20053;-77
2023/01/25 06:53:35;;;;;;;24.83;14.27;;;-0.60;99.90;;;;;;5014983;28;20500;-77
2023/01/25 06:56:05;;;;;;;22.92;13.50;;;-0.60;99.90;;;;;;5015172;28;20060;-77
2023/01/25 06:58:31;;;;;;;25.73;13.95;;;-0.60;99.90;;;;;;4999333;28;20371;-77
2023/01/25 07:01:25;;;;;;;23.50;13.68;;;-0.60;99.90;;;;;;5015535;28;20042;-77
2023/01/25 07:03:53;;;;;;;27.88;14.50;;;-0.60;99.90;;;;;;5014761;28;20050;-77
2023/01/25 07:06:20;;;;;;;24.33;14.43;;;-0.60;99.90;;;;;;5015042;28;20129;-76
2023/01/25 07:08:46;;;;;;;21.67;12.75;;;-0.60;99.90;;;;;;5014666;28;20057;-76
2023/01/25 07:11:12;;;;;;;24.13;13.40;;;-0.60;99.90;;;;;;4998274;28;20054;-77
2023/01/25 07:13:44;;;;;;;25.50;15.15;;;-0.40;99.90;;;;;;5014526;28;20049;-76
2023/01/25 07:16:15;;;;;;;24.35;14.73;;;-0.60;99.90;;;;;;4998285;28;20054;-77
2023/01/25 07:18:41;;;;;;;25.38;13.70;;;-0.50;99.90;;;;;;5014887;28;20052;-77
2023/01/25 07:21:11;;;;;;;25.33;14.82;;;-0.60;99.90;;;;;;4998341;28;20049;-76
2023/01/25 07:23:37;;;;;;;24.48;14.68;;;-0.60;99.90;;;;;;4998493;28;20095;-77
2023/01/25 07:26:04;;;;;;;24.95;14.27;;;-0.60;99.90;;;;;;4998153;28;20061;-77
2023/01/25 07:28:31;;;;;;;24.42;14.30;;;-0.60;99.90;;;;;;4998058;28;20057;-77
2023/01/25 07:31:06;;;;;;;24.45;13.50;;;-0.60;99.90;;;;;;5014364;28;20045;-73
2023/01/25 07:33:33;;;;;;;22.37;13.33;;;-0.20;99.90;;;;;;5015244;28;20049;-74
2023/01/25 07:36:00;;;;;;;26.30;14.20;;;-0.50;99.90;;;;;;5015177;28;20478;-73
2023/01/25 07:38:26;;;;;;;24.38;12.88;;;-0.50;99.90;;;;;;4998105;28;20049;-73
2023/01/25 07:40:52;;;;;;;25.13;13.82;;;-0.50;99.90;;;;;;5014061;28;20049;-73
2023/01/25 07:43:19;;;;;;;25.45;14.07;;;-0.50;99.90;;;;;;5014769;28;20526;-73
2023/01/25 07:45:47;;;;;;;24.00;12.95;;;-0.50;99.90;;;;;;5014792;28;20053;-73
2023/01/25 07:48:14;;;;;;;21.92;13.02;;;0.10;99.90;;;;;;5013813;28;20049;-73
2023/01/25 07:50:40;;;;;;;21.23;12.68;;;-0.50;99.90;;;;;;5013731;28;20056;-73
2023/01/25 07:53:08;;;;;;;22.42;13.00;;;-0.30;99.90;;;;;;5014796;28;20042;-73
2023/01/25 07:55:34;;;;;;;22.67;13.02;;;-0.50;99.90;;;;;;4997374;28;20112;-72
2023/01/25 07:58:00;;;;;;;20.75;11.90;;;0.00;99.90;;;;;;5012980;28;20050;-73
2023/01/25 08:00:27;;;;;;;20.77;12.93;;;-0.40;99.90;;;;;;4980855;28;20042;-73
2023/01/25 08:02:52;;;;;;;19.60;12.00;;;-0.60;99.90;;;;;;4996975;28;20046;-75
2023/01/25 08:05:19;;;;;;;21.10;11.95;;;-0.60;99.90;;;;;;5014739;28;20111;-73
2023/01/25 08:07:45;;;;;;;20.77;12.05;;;-0.60;99.90;;;;;;5013825;28;20057;-74
2023/01/25 08:10:11;;;;;;;20.98;12.77;;;0.30;99.90;;;;;;5014282;28;20046;-73
2023/01/25 08:12:37;;;;;;;22.75;13.05;;;0.00;99.90;;;;;;5013608;28;20085;-73
2023/01/25 08:15:03;;;;;;;20.58;12.43;;;-0.10;99.90;;;;;;4997425;28;20139;-72
2023/01/25 08:17:32;;;;;;;21.08;12.40;;;-0.60;99.90;;;;;;5014521;28;20053;-73
2023/01/25 08:20:00;;;;;;;19.70;12.05;;;-0.70;99.90;;;;;;5013479;28;20053;-76
2023/01/25 08:22:27;;;;;;;21.48;12.63;;;-0.60;99.90;;;;;;5013810;28;20068;-73
2023/01/25 08:24:53;;;;;;;19.30;11.20;;;-0.10;99.90;;;;;;5013031;28;20053;-73
2023/01/25 08:27:19;;;;;;;20.40;11.52;;;-0.70;99.90;;;;;;5013291;28;20437;-72
2023/01/25 08:29:45;;;;;;;20.33;11.88;;;-0.70;99.90;;;;;;5014175;28;20056;-72
2023/01/25 08:32:11;;;;;;;21.35;11.15;;;-0.60;99.90;;;;;;5013109;28;20445;-72
2023/01/25 08:34:38;;;;;;;19.98;11.35;;;-0.70;99.90;;;;;;5014859;28;20038;-72
2023/01/25 08:37:04;;;;;;;21.42;11.75;;;-0.70;99.90;;;;;;5012665;28;20477;-80
2023/01/25 08:39:30;;;;;;;21.73;12.15;;;-0.70;99.90;;;;;;5013824;28;20056;-77
2023/01/25 08:41:56;;;;;;;18.02;11.55;;;-0.70;99.90;;;;;;5013375;28;20057;-78
2023/01/25 08:44:22;;;;;;;21.73;11.90;;;0.00;99.90;;;;;;4996544;28;20049;-78
2023/01/25 08:46:49;;;;;;;24.10;13.15;;;-0.70;99.90;;;;;;5013016;28;20045;-78
2023/01/25 08:49:15;;;;;;;18.15;10.55;;;-0.70;99.90;;;;;;5013015;28;20478;-78
2023/01/25 08:51:41;;;;;;;19.55;12.25;;;-0.70;99.90;;;;;;5012799;28;20049;-79
2023/01/25 08:54:10;;;;;;;22.67;13.00;;;-0.40;99.90;;;;;;4980952;28;20050;-79
2023/01/25 08:56:37;;;;;;;21.67;11.70;;;0.00;99.90;;;;;;4996419;28;20406;-80
2023/01/25 08:59:04;;;;;;;22.83;12.18;;;-0.80;99.90;;;;;;5012608;28;20054;-80
2023/01/25 09:01:30;;;;;;;20.13;12.15;;;-0.80;99.90;;;;;;4980747;28;20050;-79
2023/01/25 09:03:56;;;;;;;22.17;12.35;;;-0.80;99.90;;;;;;5012469;28;20132;-78
2023/01/25 09:06:22;;;;;;;20.42;11.75;;;-0.50;99.90;;;;;;4995613;28;20049;-78
2023/01/25 09:08:48;;;;;;;21.83;11.82;;;-0.70;99.90;;;;;;5012822;28;20478;-78
2023/01/25 09:11:19;;;;;;;22.88;12.88;;;-0.80;99.90;;;;;;4996972;28;20042;-78
2023/01/25 09:13:47;;;;;;;24.27;12.45;;;-0.30;99.90;;;;;;5012559;28;20056;-78
2023/01/25 09:16:25;;;;;;;24.27;13.55;;;-0.70;99.90;;;;;;4995994;28;20049;-78
2023/01/25 09:18:51;;;;;;;23.55;12.98;;;-0.70;99.90;;;;;;5012900;28;20046;-77
2023/01/25 09:21:17;;;;;;;20.92;12.30;;;-0.60;99.90;;;;;;4979553;28;20057;-77
2023/01/25 09:23:47;;;;;;;23.17;12.60;;;-0.60;99.90;;;;;;5012609;28;20089;-78
2023/01/25 09:26:14;;;;;;;22.63;12.75;;;-0.60;99.90;;;;;;5012231;28;20101;-77
2023/01/25 09:28:41;;;;;;;20.60;12.20;;;-0.60;99.90;;;;;;5012515;28;20054;-78
2023/01/25 09:31:08;;;;;;;21.23;12.65;;;-0.60;99.90;;;;;;5012349;28;20129;-77
2023/01/25 09:33:35;;;;;;;22.00;12.38;;;-0.60;99.90;;;;;;5013597;28;20482;-76
2023/01/25 09:36:02;;;;;;;24.55;13.07;;;-0.60;99.90;;;;;;5014874;28;20053;-76
2023/01/25 09:38:28;;;;;;;23.05;13.18;;;-0.60;99.90;;;;;;4997672;28;20041;-78
2023/01/25 09:41:15;;;;;;;21.50;12.48;;;-0.60;99.90;;;;;;4979987;28;20046;-77
2023/01/25 09:44:18;;;;;;;21.77;12.93;;;-0.70;99.90;;;;;;5011977;28;20050;-78
2023/01/25 09:46:55;;;;;;;23.05;12.98;;;-0.70;99.90;;;;;;4996754;28;20096;-77
2023/01/25 09:49:27;;;;;;;;;;;0.00;99.90;;;;;;5013001;28;20050;-77
2023/01/25 09:52:20;;;;;;;21.60;12.13;;;-0.70;99.90;;;;;;5012779;28;19926;-77
2023/01/25 09:54:46;;;;;;;24.33;12.48;;;-0.70;99.90;;;;;;5012148;28;20045;-78
2023/01/25 09:57:15;;;;;;;28.73;15.73;;;-0.40;99.90;;;;;;5012026;28;20050;-77
2023/01/25 09:59:43;;;;;;;24.88;13.18;;;-0.70;99.90;;;;;;5011998;28;20046;-77
2023/01/25 10:02:29;;;;;;;24.77;13.95;;;-0.30;99.90;;;;;;5012016;28;20129;-77
2023/01/25 10:05:04;;;;;;;24.67;13.35;;;-0.80;99.90;;;;;;4995370;28;20570;-78
2023/01/25 10:07:59;;;;;;;24.50;14.02;;;-0.30;99.90;;;;;;5011897;28;20096;-77
2023/01/25 10:10:38;;;;;;;25.13;13.25;;;-0.80;99.90;;;;;;4978401;28;20049;-76
2023/01/25 10:13:10;;;;;;;23.08;12.45;;;-0.60;99.90;;;;;;5012410;28;20128;-76
2023/01/25 10:16:04;;;;;;;23.70;13.52;;;-0.80;99.90;;;;;;5012988;28;20046;-76
2023/01/25 10:18:51;;;;;;;26.02;13.13;;;-0.80;99.90;;;;;;5011821;28;20053;-76
2023/01/25 10:21:26;;;;;;;22.90;12.23;;;-0.80;99.90;;;;;;5014564;28;20084;-77
2023/01/25 10:24:09;;;;;;;24.20;12.93;;;-0.80;99.90;;;;;;5015799;28;20046;-76
2023/01/25 10:26:37;;;;;;;23.27;13.13;;;-0.80;99.90;;;;;;4999376;28;20045;-77
2023/01/25 10:29:10;;;;;;;24.88;14.18;;;-0.60;99.90;;;;;;5016197;28;20047;-75
2023/01/25 10:31:45;;;;;;;25.73;14.70;;;-0.80;99.90;;;;;;5015410;28;20192;-76
2023/01/25 10:34:37;;;;;;;25.38;13.18;;;-0.80;99.90;;;;;;5016118;28;20050;-77
2023/01/25 10:37:12;;;;;;;23.83;13.40;;;-0.80;99.90;;;;;;5015134;28;20080;-76
2023/01/25 10:39:46;;;;;;;24.70;13.07;;;-0.80;99.90;;;;;;5015153;28;20050;-76
2023/01/25 10:42:15;;;;;;;24.48;13.93;;;-0.90;99.90;;;;;;4999132;28;20414;-77
2023/01/25 10:44:41;;;;;;;26.63;14.35;;;-0.90;99.90;;;;;;5015918;28;20050;-77
2023/01/25 10:47:33;;;;;;;26.02;13.75;;;-0.90;99.90;;;;;;5015210;28;20103;-75
2023/01/25 10:49:58;;;;;;;23.42;13.40;;;-0.80;99.90;;;;;;5015275;28;20525;-76
2023/01/25 10:52:30;;;;;;;24.50;12.60;;;-0.80;99.90;;;;;;5014713;28;20081;-75
2023/01/25 10:55:18;;;;;;;23.48;12.43;;;-0.80;99.90;;;;;;5015479;28;20116;-75
2023/01/25 10:57:56;;;;;;;22.30;12.55;;;-0.80;99.90;;;;;;5014881;28;20093;-75
2023/01/25 11:00:33;;;;;;;23.98;12.80;;;-0.80;99.90;;;;;;5015251;28;20370;-75
2023/01/25 11:02:59;;;;;;;23.92;12.75;;;-0.70;99.90;;;;;;5015689;28;20042;-76
2023/01/25 11:05:29;;;;;;;23.60;12.40;;;-0.30;99.90;;;;;;4997170;28;20138;-76
2023/01/25 11:07:56;;;;;;;24.88;12.68;;;-0.70;99.90;;;;;;5015085;28;20064;-77
2023/01/25 11:10:34;;;;;;;23.80;13.68;;;-0.70;99.90;;;;;;4998252;28;20099;-78
2023/01/25 11:13:15;;;;;;;24.25;12.82;;;0.10;99.90;;;;;;4998931;28;20057;-78
2023/01/25 11:15:49;;;;;;;23.25;13.40;;;-0.20;99.90;;;;;;4998185;28;20046;-76
2023/01/25 11:18:23;;;;;;;21.52;12.30;;;-0.70;99.90;;;;;;5015015;28;20069;-77
2023/01/25 11:21:11;;;;;;;27.20;14.68;;;-0.80;99.90;;;;;;4997873;28;20517;-79
2023/01/25 11:23:37;;;;;;;25.33;13.73;;;-0.70;99.90;;;;;;5014550;28;20046;-78
2023/01/25 11:26:15;;;;;;;20.60;11.65;;;-0.80;99.90;;;;;;4997938;28;20121;-77
2023/01/25 11:28:43;;;;;;;21.92;12.10;;;-0.80;99.90;;;;;;5013932;28;20108;-77
2023/01/25 11:31:12;;;;;;;25.45;12.88;;;-0.80;99.90;;;;;;5013883;28;20125;-77
2023/01/25 11:33:39;;;;;;;22.92;12.35;;;-0.80;99.90;;;;;;5013949;28;20053;-79
2023/01/25 11:36:18;;;;;;;19.10;11.60;;;-0.80;99.90;;;;;;5014766;28;20432;-79
2023/01/25 11:39:17;;;;;;;21.30;12.30;;;-0.80;99.90;;;;;;4998017;28;20042;-80
2023/01/25 11:42:02;;;;;;;23.48;12.52;;;-0.80;99.90;;;;;;5014516;28;20046;-81
2023/01/25 11:45:05;;;;;;;22.58;12.23;;;-0.80;99.90;;;;;;5014103;28;20085;-79
2023/01/25 11:48:06;;;;;;;22.00;11.68;;;-0.80;99.90;;;;;;5013844;28;20038;-77
2023/01/25 11:50:41;;;;;;;22.02;11.80;;;-0.80;99.90;;;;;;5013698;28;20057;-77
2023/01/25 11:53:12;;;;;;;22.33;11.70;;;-0.80;99.90;;;;;;5014538;28;20100;-75
2023/01/25 11:55:46;;;;;;;22.45;11.27;;;-0.80;99.90;;;;;;5013336;28;20056;-75
2023/01/25 11:58:17;;;;;;;22.13;12.27;;;-0.80;99.90;;;;;;5013921;28;20391;-77
2023/01/25 12:00:58;;;;;;;23.60;11.55;;;-0.80;99.90;;;;;;5013765;28;20045;-78
2023/01/25 12:03:47;;;;;;;22.25;12.15;;;-0.80;99.90;;;;;;5014272;28;20068;-78
2023/01/25 12:06:31;;;;;;;21.77;12.07;;;-0.70;99.90;;;;;;5013080;28;20108;-80
2023/01/25 12:09:09;;;;;;;23.85;12.23;;;-0.70;99.90;;;;;;5014028;28;20540;-79
2023/01/25 12:12:00;;;;;;;26.50;12.82;;;-0.80;99.90;;;;;;5013217;28;20045;-79
2023/01/25 12:14:40;;;;;;;25.92;13.10;;;-0.80;99.90;;;;;;5013720;28;20050;-78
2023/01/25 12:17:39;;;;;;;21.60;11.50;;;-0.80;99.90;;;;;;4997069;28;20092;-81
2023/01/25 12:20:17;;;;;;;23.33;12.20;;;-0.80;99.90;;;;;;5013571;28;20049;-79
2023/01/25 12:23:24;;;;;;;24.15;12.18;;;-0.80;99.90;;;;;;5014096;28;20105;-79
2023/01/25 12:25:58;;;;;;;22.63;11.27;;;-0.80;99.90;;;;;;5004132;28;20061;-78
2023/01/25 12:28:50;;;;;;;21.48;12.25;;;-0.80;99.90;;;;;;5012692;28;20502;-78
2023/01/25 12:31:25;;;;;;;22.05;11.70;;;-0.70;99.90;;;;;;4996762;28;20042;-77
2023/01/25 12:34:01;;;;;;;23.15;12.02;;;-0.80;99.90;;;;;;5013306;28;20137;-77
2023/01/25 12:36:38;;;;;;;21.23;12.23;;;-0.80;99.90;;;;;;5013006;28;20046;-78
2023/01/25 12:39:11;;;;;;;24.48;13.35;;;-0.80;99.90;;;;;;4997453;28;20394;-77
2023/01/25 12:41:49;;;;;;;21.90;11.50;;;-0.40;99.90;;;;;;4996532;28;20048;-77
2023/01/25 12:44:36;;;;;;;23.90;12.98;;;-0.80;99.90;;;;;;4996542;28;20438;-78
2023/01/25 12:47:31;;;;;;;23.15;12.77;;;-0.80;99.90;;;;;;5013110;28;20085;-79
2023/01/25 12:50:22;;;;;;;22.40;11.73;;;-0.80;99.90;;;;;;5012484;28;20065;-77
2023/01/25 12:52:54;;;;;;;24.65;13.18;;;-0.80;99.90;;;;;;5012350;28;20089;-80